sensor_id;sensor_type;location;lat;lon;timestamp;pressure;altitude;pressure_sealevel;temperature
70435;BMP280;57876;47.792;12.960;2022-07-23T00:01:49;97001.31;;;20.90
70435;BMP280;57876;47.792;12.960;2022-07-23T00:04:14;96991.63;;;20.89
70435;BMP280;57876;47.792;12.960;2022-07-23T00:06:39;96979.88;;;20.89
70435;BMP280;57876;47.792;12.960;2022-07-23T00:09:03;96997.13;;;20.89
70435;BMP280;57876;47.792;12.960;2022-07-23T00:11:27;96997.13;;;20.89
70435;BMP280;57876;47.792;12.960;2022-07-23T00:13:52;96985.38;;;20.89
70435;BMP280;57876;47.792;12.960;2022-07-23T00:16:19;96995.69;;;20.88
70435;BMP280;57876;47.792;12.960;2022-07-23T00:18:43;96985.38;;;20.89
70435;BMP280;57876;47.792;12.960;2022-07-23T00:21:07;96985.38;;;20.89
70435;BMP280;57876;47.792;12.960;2022-07-23T00:23:32;96979.19;;;20.88
70435;BMP280;57876;47.792;12.960;2022-07-23T00:25:56;96968.19;;;20.88
70435;BMP280;57876;47.792;12.960;2022-07-23T00:28:21;96962.69;;;20.88
70435;BMP280;57876;47.792;12.960;2022-07-23T00:30:45;96966.13;;;20.89
70435;BMP280;57876;47.792;12.960;2022-07-23T00:33:10;96970.94;;;20.88
70435;BMP280;57876;47.792;12.960;2022-07-23T00:35:37;96970.94;;;20.88
70435;BMP280;57876;47.792;12.960;2022-07-23T00:38:04;96975.69;;;20.88
70435;BMP280;57876;47.792;12.960;2022-07-23T00:40:29;96959.19;;;20.88
70435;BMP280;57876;47.792;12.960;2022-07-23T00:42:55;96935.75;;;20.87
70435;BMP280;57876;47.792;12.960;2022-07-23T00:45:20;96931.69;;;20.88
70435;BMP280;57876;47.792;12.960;2022-07-23T00:47:44;96928.94;;;20.88
70435;BMP280;57876;47.792;12.960;2022-07-23T00:50:09;96933.72;;;20.87
70435;BMP280;57876;47.792;12.960;2022-07-23T00:52:35;96931.69;;;20.88
70435;BMP280;57876;47.792;12.960;2022-07-23T00:55:00;96927.50;;;20.87
70435;BMP280;57876;47.792;12.960;2022-07-23T00:57:25;96922.00;;;20.87
70435;BMP280;57876;47.792;12.960;2022-07-23T00:59:49;96898.69;;;20.88
70435;BMP280;57876;47.792;12.960;2022-07-23T01:02:14;96897.97;;;20.87
70435;BMP280;57876;47.792;12.960;2022-07-23T01:04:38;96891.03;;;20.86
70435;BMP280;57876;47.792;12.960;2022-07-23T01:07:03;96905.47;;;20.87
70435;BMP280;57876;47.792;12.960;2022-07-23T01:09:27;96905.47;;;20.87
70435;BMP280;57876;47.792;12.960;2022-07-23T01:11:54;96893.78;;;20.86
70435;BMP280;57876;47.792;12.960;2022-07-23T01:14:18;96895.22;;;20.87
70435;BMP280;57876;47.792;12.960;2022-07-23T01:16:45;96899.28;;;20.86
70435;BMP280;57876;47.792;12.960;2022-07-23T01:19:10;96888.28;;;20.86
70435;BMP280;57876;47.792;12.960;2022-07-23T01:21:36;96884.09;;;20.85
70435;BMP280;57876;47.792;12.960;2022-07-23T01:24:01;96888.97;;;20.87
70435;BMP280;57876;47.792;12.960;2022-07-23T01:26:25;96885.53;;;20.86
70435;BMP280;57876;47.792;12.960;2022-07-23T01:28:50;96887.56;;;20.86
70435;BMP280;57876;47.792;12.960;2022-07-23T01:31:14;96882.06;;;20.86
70435;BMP280;57876;47.792;12.960;2022-07-23T01:33:38;96877.28;;;20.86
70435;BMP280;57876;47.792;12.960;2022-07-23T01:36:03;96870.34;;;20.85
70435;BMP280;57876;47.792;12.960;2022-07-23T01:38:27;96870.34;;;20.85
70435;BMP280;57876;47.792;12.960;2022-07-23T01:40:52;96864.13;;;20.85
70435;BMP280;57876;47.792;12.960;2022-07-23T01:43:16;96864.84;;;20.85
70435;BMP280;57876;47.792;12.960;2022-07-23T01:45:41;96865.56;;;20.86
70435;BMP280;57876;47.792;12.960;2022-07-23T01:48:07;96860.06;;;20.86
70435;BMP280;57876;47.792;12.960;2022-07-23T01:50:31;96866.88;;;20.85
70435;BMP280;57876;47.792;12.960;2022-07-23T01:52:56;96859.34;;;20.85
70435;BMP280;57876;47.792;12.960;2022-07-23T01:55:20;96875.97;;;20.87
70435;BMP280;57876;47.792;12.960;2022-07-23T01:57:45;96853.84;;;20.85
70435;BMP280;57876;47.792;12.960;2022-07-23T02:00:10;96871.06;;;20.86
70435;BMP280;57876;47.792;12.960;2022-07-23T02:02:34;96876.56;;;20.86
70435;BMP280;57876;47.792;12.960;2022-07-23T02:04:59;96884.09;;;20.85
70435;BMP280;57876;47.792;12.960;2022-07-23T02:07:23;96888.28;;;20.86
70435;BMP280;57876;47.792;12.960;2022-07-23T02:09:47;96887.56;;;20.86
70435;BMP280;57876;47.792;12.960;2022-07-23T02:12:12;96883.38;;;20.85
70435;BMP280;57876;47.792;12.960;2022-07-23T02:14:36;96891.63;;;20.85
70435;BMP280;57876;47.792;12.960;2022-07-23T02:17:01;96897.13;;;20.85
70435;BMP280;57876;47.792;12.960;2022-07-23T02:19:25;96892.34;;;20.85
70435;BMP280;57876;47.792;12.960;2022-07-23T02:21:50;96896.53;;;20.86
70435;BMP280;57876;47.792;12.960;2022-07-23T02:24:15;96902.03;;;20.86
70435;BMP280;57876;47.792;12.960;2022-07-23T02:26:40;96908.84;;;20.85
70435;BMP280;57876;47.792;12.960;2022-07-23T02:29:04;96915.78;;;20.86
70435;BMP280;57876;47.792;12.960;2022-07-23T02:31:30;96916.38;;;20.85
70435;BMP280;57876;47.792;12.960;2022-07-23T02:33:54;96941.84;;;20.85
70435;BMP280;57876;47.792;12.960;2022-07-23T02:36:19;96943.88;;;20.85
70435;BMP280;57876;47.792;12.960;2022-07-23T02:38:43;96944.63;;;20.85
70435;BMP280;57876;47.792;12.960;2022-07-23T02:41:08;96948.06;;;20.86
70435;BMP280;57876;47.792;12.960;2022-07-23T02:43:32;96974.88;;;20.85
70435;BMP280;57876;47.792;12.960;2022-07-23T02:45:57;97035.38;;;20.85
70435;BMP280;57876;47.792;12.960;2022-07-23T02:48:21;97065.00;;;20.87
70435;BMP280;57876;47.792;12.960;2022-07-23T02:50:45;97070.38;;;20.85
70435;BMP280;57876;47.792;12.960;2022-07-23T02:53:10;97071.84;;;20.86
70435;BMP280;57876;47.792;12.960;2022-07-23T02:55:34;97084.88;;;20.85
70435;BMP280;57876;47.792;12.960;2022-07-23T02:57:59;97097.91;;;20.85
70435;BMP280;57876;47.792;12.960;2022-07-23T03:00:23;97101.38;;;20.85
70435;BMP280;57876;47.792;12.960;2022-07-23T03:02:47;97095.25;;;20.87
70435;BMP280;57876;47.792;12.960;2022-07-23T03:05:12;97108.31;;;20.86
70435;BMP280;57876;47.792;12.960;2022-07-23T03:07:36;97107.59;;;20.86
70435;BMP280;57876;47.792;12.960;2022-07-23T03:10:01;97107.59;;;20.86
70435;BMP280;57876;47.792;12.960;2022-07-23T03:12:25;97117.28;;;20.87
70435;BMP280;57876;47.792;12.960;2022-07-23T03:14:50;97124.09;;;20.86
70435;BMP280;57876;47.792;12.960;2022-07-23T03:17:14;97132.34;;;20.86
70435;BMP280;57876;47.792;12.960;2022-07-23T03:19:39;97132.34;;;20.86
70435;BMP280;57876;47.792;12.960;2022-07-23T03:22:03;97132.34;;;20.86
70435;BMP280;57876;47.792;12.960;2022-07-23T03:24:27;97124.09;;;20.86
70435;BMP280;57876;47.792;12.960;2022-07-23T03:27:12;97123.38;;;20.85
70435;BMP280;57876;47.792;12.960;2022-07-23T03:29:36;97128.88;;;20.85
70435;BMP280;57876;47.792;12.960;2022-07-23T03:32:01;97130.91;;;20.85
70435;BMP280;57876;47.792;12.960;2022-07-23T03:34:27;97132.94;;;20.84
70435;BMP280;57876;47.792;12.960;2022-07-23T03:36:51;97129.44;;;20.84
70435;BMP280;57876;47.792;12.960;2022-07-23T03:39:15;97121.94;;;20.84
70435;BMP280;57876;47.792;12.960;2022-07-23T03:41:40;97113.69;;;20.84
70435;BMP280;57876;47.792;12.960;2022-07-23T03:44:04;97113.69;;;20.84
70435;BMP280;57876;47.792;12.960;2022-07-23T03:46:28;97116.44;;;20.84
70435;BMP280;57876;47.792;12.960;2022-07-23T03:48:53;97106.16;;;20.85
70435;BMP280;57876;47.792;12.960;2022-07-23T03:51:17;97112.94;;;20.84
70435;BMP280;57876;47.792;12.960;2022-07-23T03:53:42;97109.47;;;20.83
70435;BMP280;57876;47.792;12.960;2022-07-23T03:56:06;97113.69;;;20.84
70435;BMP280;57876;47.792;12.960;2022-07-23T03:58:30;97110.94;;;20.84
70435;BMP280;57876;47.792;12.960;2022-07-23T04:00:55;97111.66;;;20.85
70435;BMP280;57876;47.792;12.960;2022-07-23T04:03:19;97102.69;;;20.84
70435;BMP280;57876;47.792;12.960;2022-07-23T04:05:44;97101.94;;;20.84
70435;BMP280;57876;47.792;12.960;2022-07-23T04:08:08;97112.94;;;20.84
70435;BMP280;57876;47.792;12.960;2022-07-23T04:10:32;97122.66;;;20.85
70435;BMP280;57876;47.792;12.960;2022-07-23T04:12:57;97117.16;;;20.85
70435;BMP280;57876;47.792;12.960;2022-07-23T04:15:21;97115.69;;;20.84
70435;BMP280;57876;47.792;12.960;2022-07-23T04:17:46;97118.44;;;20.84
70435;BMP280;57876;47.792;12.960;2022-07-23T04:20:11;97110.94;;;20.84
70435;BMP280;57876;47.792;12.960;2022-07-23T04:22:36;97101.94;;;20.84
70435;BMP280;57876;47.792;12.960;2022-07-23T04:25:00;97090.94;;;20.84
70435;BMP280;57876;47.792;12.960;2022-07-23T04:27:25;97093.69;;;20.84
70435;BMP280;57876;47.792;12.960;2022-07-23T04:29:49;97094.44;;;20.84
70435;BMP280;57876;47.792;12.960;2022-07-23T04:32:13;97102.69;;;20.84
70435;BMP280;57876;47.792;12.960;2022-07-23T04:34:38;97103.41;;;20.85
70435;BMP280;57876;47.792;12.960;2022-07-23T04:37:02;97106.16;;;20.85
70435;BMP280;57876;47.792;12.960;2022-07-23T04:39:27;97103.41;;;20.85
70435;BMP280;57876;47.792;12.960;2022-07-23T04:41:51;97098.63;;;20.85
70435;BMP280;57876;47.792;12.960;2022-07-23T04:44:16;97097.91;;;20.85
70435;BMP280;57876;47.792;12.960;2022-07-23T04:46:40;97087.63;;;20.85
70435;BMP280;57876;47.792;12.960;2022-07-23T04:49:05;97093.13;;;20.85
70435;BMP280;57876;47.792;12.960;2022-07-23T04:51:29;97100.06;;;20.86
70435;BMP280;57876;47.792;12.960;2022-07-23T04:53:53;97086.31;;;20.86
70435;BMP280;57876;47.792;12.960;2022-07-23T04:56:18;97088.34;;;20.86
70435;BMP280;57876;47.792;12.960;2022-07-23T04:58:42;97084.88;;;20.85
70435;BMP280;57876;47.792;12.960;2022-07-23T05:01:07;97078.75;;;20.87
70435;BMP280;57876;47.792;12.960;2022-07-23T05:03:31;97080.09;;;20.86
70435;BMP280;57876;47.792;12.960;2022-07-23T05:05:56;97076.63;;;20.85
70435;BMP280;57876;47.792;12.960;2022-07-23T05:08:20;97073.88;;;20.85
70435;BMP280;57876;47.792;12.960;2022-07-23T05:10:45;97066.34;;;20.86
70435;BMP280;57876;47.792;12.960;2022-07-23T05:13:09;97060.13;;;20.85
70435;BMP280;57876;47.792;12.960;2022-07-23T05:15:34;97058.78;;;20.86
70435;BMP280;57876;47.792;12.960;2022-07-23T05:17:58;97052.59;;;20.86
70435;BMP280;57876;47.792;12.960;2022-07-23T05:20:23;97042.28;;;20.86
70435;BMP280;57876;47.792;12.960;2022-07-23T05:22:47;97043.63;;;20.85
70435;BMP280;57876;47.792;12.960;2022-07-23T05:25:12;97038.13;;;20.85
70435;BMP280;57876;47.792;12.960;2022-07-23T05:27:36;97034.03;;;20.86
70435;BMP280;57876;47.792;12.960;2022-07-23T05:30:01;97025.09;;;20.86
70435;BMP280;57876;47.792;12.960;2022-07-23T05:32:25;97030.59;;;20.86
70435;BMP280;57876;47.792;12.960;2022-07-23T05:34:50;97033.34;;;20.86
70435;BMP280;57876;47.792;12.960;2022-07-23T05:37:14;97035.50;;;20.87
70435;BMP280;57876;47.792;12.960;2022-07-23T05:39:38;97036.78;;;20.86
70435;BMP280;57876;47.792;12.960;2022-07-23T05:42:03;97036.09;;;20.86
70435;BMP280;57876;47.792;12.960;2022-07-23T05:44:27;97027.94;;;20.88
70435;BMP280;57876;47.792;12.960;2022-07-23T05:46:52;97018.25;;;20.87
70435;BMP280;57876;47.792;12.960;2022-07-23T05:49:16;97028.53;;;20.86
70435;BMP280;57876;47.792;12.960;2022-07-23T05:51:40;97018.25;;;20.87
70435;BMP280;57876;47.792;12.960;2022-07-23T05:54:05;97004.50;;;20.87
70435;BMP280;57876;47.792;12.960;2022-07-23T05:56:29;97003.19;;;20.88
70435;BMP280;57876;47.792;12.960;2022-07-23T05:58:53;96992.78;;;20.86
70435;BMP280;57876;47.792;12.960;2022-07-23T06:01:18;96988.00;;;20.87
70435;BMP280;57876;47.792;12.960;2022-07-23T06:03:42;96989.44;;;20.88
70435;BMP280;57876;47.792;12.960;2022-07-23T06:06:07;96981.19;;;20.88
70435;BMP280;57876;47.792;12.960;2022-07-23T06:08:31;96983.94;;;20.88
70435;BMP280;57876;47.792;12.960;2022-07-23T06:10:56;96988.13;;;20.89
70435;BMP280;57876;47.792;12.960;2022-07-23T06:13:20;96981.19;;;20.88
70435;BMP280;57876;47.792;12.960;2022-07-23T06:15:45;96977.13;;;20.89
70435;BMP280;57876;47.792;12.960;2022-07-23T06:18:09;96980.47;;;20.87
70435;BMP280;57876;47.792;12.960;2022-07-23T06:20:33;96969.47;;;20.87
70435;BMP280;57876;47.792;12.960;2022-07-23T06:22:58;96979.19;;;20.88
70435;BMP280;57876;47.792;12.960;2022-07-23T06:25:22;96966.72;;;20.87
70435;BMP280;57876;47.792;12.960;2022-07-23T06:27:47;96968.75;;;20.87
70435;BMP280;57876;47.792;12.960;2022-07-23T06:30:12;96955.72;;;20.87
70435;BMP280;57876;47.792;12.960;2022-07-23T06:32:36;96948.78;;;20.86
70435;BMP280;57876;47.792;12.960;2022-07-23T06:35:01;96948.19;;;20.88
70435;BMP280;57876;47.792;12.960;2022-07-23T06:37:25;96941.97;;;20.87
70435;BMP280;57876;47.792;12.960;2022-07-23T06:39:50;96927.50;;;20.87
70435;BMP280;57876;47.792;12.960;2022-07-23T06:42:14;96928.22;;;20.87
70435;BMP280;57876;47.792;12.960;2022-07-23T06:44:39;96918.53;;;20.86
70435;BMP280;57876;47.792;12.960;2022-07-23T06:47:03;96909.69;;;20.88
70435;BMP280;57876;47.792;12.960;2022-07-23T06:49:27;96916.50;;;20.87
70435;BMP280;57876;47.792;12.960;2022-07-23T06:51:52;96933.72;;;20.87
70435;BMP280;57876;47.792;12.960;2022-07-23T06:54:16;96953.69;;;20.88
70435;BMP280;57876;47.792;12.960;2022-07-23T06:56:41;96946.75;;;20.87
70435;BMP280;57876;47.792;12.960;2022-07-23T06:59:06;96941.97;;;20.87
70435;BMP280;57876;47.792;12.960;2022-07-23T07:01:31;96937.94;;;20.88
70435;BMP280;57876;47.792;12.960;2022-07-23T07:03:55;96928.22;;;20.87
70435;BMP280;57876;47.792;12.960;2022-07-23T07:06:20;96926.94;;;20.88
70435;BMP280;57876;47.792;12.960;2022-07-23T07:08:44;96935.88;;;20.89
70435;BMP280;57876;47.792;12.960;2022-07-23T07:11:08;96946.88;;;20.89
70435;BMP280;57876;47.792;12.960;2022-07-23T07:13:33;96948.34;;;20.90
70435;BMP280;57876;47.792;12.960;2022-07-23T07:15:57;96957.28;;;20.90
70435;BMP280;57876;47.792;12.960;2022-07-23T07:18:22;96940.09;;;20.90
70435;BMP280;57876;47.792;12.960;2022-07-23T07:20:46;96936.63;;;20.89
70435;BMP280;57876;47.792;12.960;2022-07-23T07:23:12;96935.28;;;20.90
70435;BMP280;57876;47.792;12.960;2022-07-23T07:25:36;96958.75;;;20.91
70435;BMP280;57876;47.792;12.960;2022-07-23T07:28:00;96971.78;;;20.91
70435;BMP280;57876;47.792;12.960;2022-07-23T07:30:25;96983.50;;;20.91
70435;BMP280;57876;47.792;12.960;2022-07-23T07:32:49;96989.00;;;20.91
70435;BMP280;57876;47.792;12.960;2022-07-23T07:35:14;96988.28;;;20.91
70435;BMP280;57876;47.792;12.960;2022-07-23T07:37:38;97004.78;;;20.91
70435;BMP280;57876;47.792;12.960;2022-07-23T07:40:03;97009.00;;;20.92
70435;BMP280;57876;47.792;12.960;2022-07-23T07:42:27;97024.03;;;20.91
70435;BMP280;57876;47.792;12.960;2022-07-23T07:44:52;97020.00;;;20.92
70435;BMP280;57876;47.792;12.960;2022-07-23T07:47:16;97026.78;;;20.91
70435;BMP280;57876;47.792;12.960;2022-07-23T07:49:42;97030.25;;;20.91
70435;BMP280;57876;47.792;12.960;2022-07-23T07:52:06;97030.25;;;20.91
70435;BMP280;57876;47.792;12.960;2022-07-23T07:54:31;97026.06;;;20.90
70435;BMP280;57876;47.792;12.960;2022-07-23T07:56:56;97037.78;;;20.91
70435;BMP280;57876;47.792;12.960;2022-07-23T07:59:20;97035.03;;;20.91
70435;BMP280;57876;47.792;12.960;2022-07-23T08:01:45;97048.06;;;20.90
70435;BMP280;57876;47.792;12.960;2022-07-23T08:04:09;97050.81;;;20.90
70435;BMP280;57876;47.792;12.960;2022-07-23T08:06:33;97054.31;;;20.91
70435;BMP280;57876;47.792;12.960;2022-07-23T08:08:58;97058.34;;;20.90
70435;BMP280;57876;47.792;12.960;2022-07-23T08:11:22;97064.56;;;20.90
70435;BMP280;57876;47.792;12.960;2022-07-23T08:13:47;97063.84;;;20.90
70435;BMP280;57876;47.792;12.960;2022-07-23T08:16:11;97060.41;;;20.89
70435;BMP280;57876;47.792;12.960;2022-07-23T08:18:36;97069.34;;;20.90
70435;BMP280;57876;47.792;12.960;2022-07-23T08:21:00;97079.66;;;20.89
70435;BMP280;57876;47.792;12.960;2022-07-23T08:23:25;97085.16;;;20.89
70435;BMP280;57876;47.792;12.960;2022-07-23T08:25:49;97090.66;;;20.89
70435;BMP280;57876;47.792;12.960;2022-07-23T08:28:14;97083.09;;;20.90
70435;BMP280;57876;47.792;12.960;2022-07-23T08:30:41;97079.66;;;20.89
70435;BMP280;57876;47.792;12.960;2022-07-23T08:33:13;97081.06;;;20.90
70435;BMP280;57876;47.792;12.960;2022-07-23T08:35:41;97074.16;;;20.89
70435;BMP280;57876;47.792;12.960;2022-07-23T08:38:07;97081.81;;;20.91
70435;BMP280;57876;47.792;12.960;2022-07-23T08:40:34;97075.00;;;20.92
70435;BMP280;57876;47.792;12.960;2022-07-23T08:42:59;97072.25;;;20.92
70435;BMP280;57876;47.792;12.960;2022-07-23T08:45:26;97074.25;;;20.91
70435;BMP280;57876;47.792;12.960;2022-07-23T08:47:52;97069.50;;;20.92
70435;BMP280;57876;47.792;12.960;2022-07-23T08:50:17;97064.72;;;20.92
70435;BMP280;57876;47.792;12.960;2022-07-23T08:52:41;97061.25;;;20.92
70435;BMP280;57876;47.792;12.960;2022-07-23T08:55:07;97066.16;;;20.93
70435;BMP280;57876;47.792;12.960;2022-07-23T08:57:31;97068.91;;;20.93
70435;BMP280;57876;47.792;12.960;2022-07-23T08:59:56;97049.66;;;20.93
70435;BMP280;57876;47.792;12.960;2022-07-23T09:02:21;97053.16;;;20.94
70435;BMP280;57876;47.792;12.960;2022-07-23T09:04:45;97056.00;;;20.96
70435;BMP280;57876;47.792;12.960;2022-07-23T09:07:10;97052.41;;;20.93
70435;BMP280;57876;47.792;12.960;2022-07-23T09:09:34;97058.66;;;20.94
70435;BMP280;57876;47.792;12.960;2022-07-23T09:12:09;97053.84;;;20.94
70435;BMP280;57876;47.792;12.960;2022-07-23T09:14:41;97044.28;;;20.95
70435;BMP280;57876;47.792;12.960;2022-07-23T09:19:34;97036.75;;;20.96
70435;BMP280;57876;47.792;12.960;2022-07-23T09:25:09;97046.47;;;20.97
70435;BMP280;57876;47.792;12.960;2022-07-23T09:27:55;97040.97;;;20.97
70435;BMP280;57876;47.792;12.960;2022-07-23T09:30:22;97047.75;;;20.96
70435;BMP280;57876;47.792;12.960;2022-07-23T09:33:13;97059.47;;;20.96
70435;BMP280;57876;47.792;12.960;2022-07-23T09:35:52;97060.22;;;20.97
70435;BMP280;57876;47.792;12.960;2022-07-23T09:38:18;97060.22;;;20.97
70435;BMP280;57876;47.792;12.960;2022-07-23T09:40:43;97056.72;;;20.96
70435;BMP280;57876;47.792;12.960;2022-07-23T09:43:08;97051.97;;;20.97
70435;BMP280;57876;47.792;12.960;2022-07-23T09:45:32;97048.47;;;20.96
70435;BMP280;57876;47.792;12.960;2022-07-23T09:48:13;97057.47;;;20.97
70435;BMP280;57876;47.792;12.960;2022-07-23T09:50:38;97056.00;;;20.96
70435;BMP280;57876;47.792;12.960;2022-07-23T09:53:03;97060.78;;;20.95
70435;BMP280;57876;47.792;12.960;2022-07-23T09:55:32;97053.25;;;20.96
70435;BMP280;57876;47.792;12.960;2022-07-23T09:58:05;97054.56;;;20.95
70435;BMP280;57876;47.792;12.960;2022-07-23T10:00:31;97062.09;;;20.94
70435;BMP280;57876;47.792;12.960;2022-07-23T10:02:55;97067.59;;;20.94
70435;BMP280;57876;47.792;12.960;2022-07-23T10:05:21;97068.31;;;20.95
70435;BMP280;57876;47.792;12.960;2022-07-23T10:07:46;97060.06;;;20.95
70435;BMP280;57876;47.792;12.960;2022-07-23T10:10:11;97066.28;;;20.95
70435;BMP280;57876;47.792;12.960;2022-07-23T10:12:36;97069.03;;;20.95
70435;BMP280;57876;47.792;12.960;2022-07-23T10:15:04;97060.78;;;20.95
70435;BMP280;57876;47.792;12.960;2022-07-23T10:17:30;97058.78;;;20.96
70435;BMP280;57876;47.792;12.960;2022-07-23T10:19:55;97057.31;;;20.95
70435;BMP280;57876;47.792;12.960;2022-07-23T10:22:23;97051.06;;;20.94
70435;BMP280;57876;47.792;12.960;2022-07-23T10:27:34;97060.78;;;20.95
70435;BMP280;57876;47.792;12.960;2022-07-23T10:30:03;97060.78;;;20.95
70435;BMP280;57876;47.792;12.960;2022-07-23T10:32:45;97072.53;;;20.96
70435;BMP280;57876;47.792;12.960;2022-07-23T10:38:02;97059.31;;;20.94
70435;BMP280;57876;47.792;12.960;2022-07-23T10:40:31;97066.16;;;20.93
70435;BMP280;57876;47.792;12.960;2022-07-23T10:42:59;97058.66;;;20.94
70435;BMP280;57876;47.792;12.960;2022-07-23T10:45:33;97059.31;;;20.94
70435;BMP280;57876;47.792;12.960;2022-07-23T10:48:19;97061.41;;;20.94
70435;BMP280;57876;47.792;12.960;2022-07-23T10:51:14;97070.34;;;20.94
70435;BMP280;57876;47.792;12.960;2022-07-23T10:56:15;97064.16;;;20.94
70435;BMP280;57876;47.792;12.960;2022-07-23T10:58:47;97070.94;;;20.93
70435;BMP280;57876;47.792;12.960;2022-07-23T11:03:58;97054.44;;;20.93
70435;BMP280;57876;47.792;12.960;2022-07-23T11:06:23;97058.66;;;20.94
70435;BMP280;57876;47.792;12.960;2022-07-23T11:15:06;97044.16;;;20.93
70435;BMP280;57876;47.792;12.960;2022-07-23T11:17:57;97039.41;;;20.94
70435;BMP280;57876;47.792;12.960;2022-07-23T11:20:24;97040.69;;;20.93
70435;BMP280;57876;47.792;12.960;2022-07-23T11:22:50;97049.66;;;20.93
70435;BMP280;57876;47.792;12.960;2022-07-23T11:27:48;97035.91;;;20.93
70435;BMP280;57876;47.792;12.960;2022-07-23T11:35:31;97031.81;;;20.94
70435;BMP280;57876;47.792;12.960;2022-07-23T11:38:21;97042.16;;;20.94
70435;BMP280;57876;47.792;12.960;2022-07-23T11:40:51;97029.81;;;20.95
70435;BMP280;57876;47.792;12.960;2022-07-23T11:43:16;97029.22;;;20.96
70435;BMP280;57876;47.792;12.960;2022-07-23T11:45:50;97030.53;;;20.95
70435;BMP280;57876;47.792;12.960;2022-07-23T11:48:26;97019.53;;;20.95
70435;BMP280;57876;47.792;12.960;2022-07-23T11:50:52;97029.81;;;20.95
70435;BMP280;57876;47.792;12.960;2022-07-23T11:53:28;97020.13;;;20.94
70435;BMP280;57876;47.792;12.960;2022-07-23T11:55:53;97017.94;;;20.92
70435;BMP280;57876;47.792;12.960;2022-07-23T11:58:19;97022.16;;;20.93
70435;BMP280;57876;47.792;12.960;2022-07-23T12:00:43;97017.25;;;20.92
70435;BMP280;57876;47.792;12.960;2022-07-23T12:03:11;97015.94;;;20.93
70435;BMP280;57876;47.792;12.960;2022-07-23T12:05:36;97013.91;;;20.93
70435;BMP280;57876;47.792;12.960;2022-07-23T12:08:03;97007.69;;;20.93
70435;BMP280;57876;47.792;12.960;2022-07-23T12:10:40;97007.69;;;20.93
70435;BMP280;57876;47.792;12.960;2022-07-23T12:13:08;96996.53;;;20.91
70435;BMP280;57876;47.792;12.960;2022-07-23T12:15:37;96997.41;;;20.93
70435;BMP280;57876;47.792;12.960;2022-07-23T12:18:03;96996.06;;;20.94
70435;BMP280;57876;47.792;12.960;2022-07-23T12:20:31;97000.88;;;20.94
70435;BMP280;57876;47.792;12.960;2022-07-23T12:22:58;97002.91;;;20.93
70435;BMP280;57876;47.792;12.960;2022-07-23T12:25:25;97003.00;;;20.95
70435;BMP280;57876;47.792;12.960;2022-07-23T12:28:03;97007.22;;;20.96
70435;BMP280;57876;47.792;12.960;2022-07-23T12:30:32;97005.06;;;20.95
70435;BMP280;57876;47.792;12.960;2022-07-23T12:32:58;97009.97;;;20.96
70435;BMP280;57876;47.792;12.960;2022-07-23T12:35:29;97005.19;;;20.97
70435;BMP280;57876;47.792;12.960;2022-07-23T12:38:00;97001.00;;;20.96
70435;BMP280;57876;47.792;12.960;2022-07-23T12:40:25;96994.75;;;20.95
70435;BMP280;57876;47.792;12.960;2022-07-23T12:42:57;96993.47;;;20.96
70435;BMP280;57876;47.792;12.960;2022-07-23T12:45:22;96981.00;;;20.95
70435;BMP280;57876;47.792;12.960;2022-07-23T12:48:02;96980.28;;;20.95
70435;BMP280;57876;47.792;12.960;2022-07-23T12:53:09;96977.53;;;20.95
70435;BMP280;57876;47.792;12.960;2022-07-23T12:55:34;96978.88;;;20.94
70435;BMP280;57876;47.792;12.960;2022-07-23T12:58:04;96988.56;;;20.95
70435;BMP280;57876;47.792;12.960;2022-07-23T13:00:29;96986.50;;;20.95
70435;BMP280;57876;47.792;12.960;2022-07-23T13:02:53;96981.63;;;20.94
70435;BMP280;57876;47.792;12.960;2022-07-23T13:05:18;96980.28;;;20.95
70435;BMP280;57876;47.792;12.960;2022-07-23T13:07:42;96977.53;;;20.95
70435;BMP280;57876;47.792;12.960;2022-07-23T13:10:07;96984.38;;;20.94
70435;BMP280;57876;47.792;12.960;2022-07-23T13:12:31;96980.88;;;20.93
70435;BMP280;57876;47.792;12.960;2022-07-23T13:14:55;96984.38;;;20.94
70435;BMP280;57876;47.792;12.960;2022-07-23T13:17:20;96985.06;;;20.94
70435;BMP280;57876;47.792;12.960;2022-07-23T13:19:44;96980.28;;;20.95
70435;BMP280;57876;47.792;12.960;2022-07-23T13:22:09;96992.75;;;20.96
70435;BMP280;57876;47.792;12.960;2022-07-23T13:24:33;96981.00;;;20.95
70435;BMP280;57876;47.792;12.960;2022-07-23T13:26:57;96979.69;;;20.96
70435;BMP280;57876;47.792;12.960;2022-07-23T13:29:24;96985.81;;;20.95
70435;BMP280;57876;47.792;12.960;2022-07-23T13:31:48;96983.06;;;20.95
70435;BMP280;57876;47.792;12.960;2022-07-23T13:34:13;96982.44;;;20.96
70435;BMP280;57876;47.792;12.960;2022-07-23T13:36:37;96976.25;;;20.96
70435;BMP280;57876;47.792;12.960;2022-07-23T13:39:02;96981.75;;;20.96
70435;BMP280;57876;47.792;12.960;2022-07-23T13:41:27;96982.44;;;20.96
70435;BMP280;57876;47.792;12.960;2022-07-23T13:43:51;96983.19;;;20.97
70435;BMP280;57876;47.792;12.960;2022-07-23T13:46:16;96987.97;;;20.96
70435;BMP280;57876;47.792;12.960;2022-07-23T13:48:40;96988.69;;;20.97
70435;BMP280;57876;47.792;12.960;2022-07-23T13:51:04;96983.19;;;20.97
70435;BMP280;57876;47.792;12.960;2022-07-23T13:53:29;96979.00;;;20.96
70435;BMP280;57876;47.792;12.960;2022-07-23T13:55:53;96968.69;;;20.96
70435;BMP280;57876;47.792;12.960;2022-07-23T13:58:19;96972.19;;;20.97
70435;BMP280;57876;47.792;12.960;2022-07-23T14:00:48;96977.69;;;20.97
70435;BMP280;57876;47.792;12.960;2022-07-23T14:03:15;96988.69;;;20.97
70435;BMP280;57876;47.792;12.960;2022-07-23T14:05:39;96976.94;;;20.96
70435;BMP280;57876;47.792;12.960;2022-07-23T14:08:05;96977.69;;;20.97
70435;BMP280;57876;47.792;12.960;2022-07-23T14:10:29;96972.19;;;20.97
70435;BMP280;57876;47.792;12.960;2022-07-23T14:12:54;96970.00;;;20.95
70435;BMP280;57876;47.792;12.960;2022-07-23T14:15:20;96974.19;;;20.96
70435;BMP280;57876;47.792;12.960;2022-07-23T14:17:45;96977.69;;;20.97
70435;BMP280;57876;47.792;12.960;2022-07-23T14:20:10;96976.25;;;20.96
70435;BMP280;57876;47.792;12.960;2022-07-23T14:22:35;96976.25;;;20.96